createdAt,value
2018-04-12T00:00:04.988Z,11.50
2018-04-12T00:02:34.754Z,11.50
2018-04-12T00:05:02.874Z,11.50
2018-04-12T00:07:31.021Z,11.50
2018-04-12T00:09:59.143Z,11.50
2018-04-12T00:12:27.285Z,11.50
2018-04-12T00:14:55.416Z,11.60
2018-04-12T00:17:23.585Z,11.60
2018-04-12T00:19:51.726Z,11.60
2018-04-12T00:22:20.624Z,11.50
2018-04-12T00:24:48.789Z,11.50
2018-04-12T00:27:16.918Z,11.50
2018-04-12T00:29:45.078Z,11.40
2018-04-12T00:32:13.218Z,11.40
2018-04-12T00:34:41.392Z,11.50
2018-04-12T00:37:09.550Z,11.40
2018-04-12T00:39:37.693Z,11.40
2018-04-12T00:42:05.918Z,11.40
2018-04-12T00:44:34.078Z,11.40
2018-04-12T00:47:02.238Z,11.30
2018-04-12T00:49:31.165Z,11.30
2018-04-12T00:51:59.392Z,11.30
2018-04-12T00:54:28.289Z,11.30
2018-04-12T00:56:57.193Z,11.40
2018-04-12T00:59:25.332Z,11.30
2018-04-12T01:01:54.251Z,11.30
2018-04-12T01:04:22.377Z,11.30
2018-04-12T01:06:50.528Z,11.30
2018-04-12T01:09:18.671Z,11.30
2018-04-12T01:11:46.829Z,11.30
2018-04-12T01:14:15.720Z,11.30
2018-04-12T01:16:43.881Z,11.30
2018-04-12T01:19:12.772Z,11.30
2018-04-12T01:21:41.696Z,11.40
2018-04-12T01:24:09.844Z,11.30
2018-04-12T01:26:37.983Z,11.30
2018-04-12T01:29:06.116Z,11.40
2018-04-12T01:31:34.281Z,11.40
2018-04-12T01:34:03.332Z,11.40
2018-04-12T01:36:31.469Z,11.50
2018-04-12T01:38:59.616Z,11.50
2018-04-12T01:41:28.160Z,11.40
2018-04-12T01:43:56.301Z,11.40
2018-04-12T01:46:24.457Z,11.40
2018-04-12T01:48:52.607Z,11.40
2018-04-12T01:51:20.733Z,11.40
2018-04-12T01:53:48.883Z,11.40
2018-04-12T01:56:19.872Z,11.50
2018-04-12T01:58:48.792Z,11.50
2018-04-12T02:01:16.920Z,11.40
2018-04-12T02:03:45.822Z,11.50
2018-04-12T02:06:13.956Z,11.40
2018-04-12T02:08:42.097Z,11.40
2018-04-12T02:11:10.237Z,11.40
2018-04-12T02:13:38.376Z,11.40
2018-04-12T02:16:06.533Z,11.40
2018-04-12T02:18:34.681Z,11.40
2018-04-12T02:21:02.905Z,11.30
2018-04-12T02:23:31.815Z,11.30
2018-04-12T02:25:59.951Z,11.30
2018-04-12T02:28:28.087Z,11.30
2018-04-12T02:30:56.257Z,11.30
2018-04-12T02:33:24.380Z,11.30
2018-04-12T02:35:53.264Z,11.20
2018-04-12T02:38:21.476Z,11.20
2018-04-12T02:40:49.606Z,11.20
2018-04-12T02:43:17.760Z,11.30
2018-04-12T02:45:45.894Z,11.20
2018-04-12T02:48:14.041Z,11.20
2018-04-12T02:50:43.076Z,11.10
2018-04-12T02:53:11.160Z,11.10
2018-04-12T02:55:39.280Z,11.10
2018-04-12T02:58:08.185Z,11.10
2018-04-12T03:00:36.319Z,11.10
2018-04-12T03:03:04.465Z,11.20
2018-04-12T03:05:32.586Z,11.20
2018-04-12T03:08:00.716Z,11.20
2018-04-12T03:10:30.497Z,11.30
2018-04-12T03:12:58.632Z,11.30
2018-04-12T03:15:27.647Z,11.40
2018-04-12T03:17:55.788Z,11.30
2018-04-12T03:20:24.682Z,11.40
2018-04-12T03:22:53.581Z,11.40
2018-04-12T03:25:22.472Z,11.40
2018-04-12T03:27:50.621Z,11.30
2018-04-12T03:30:18.790Z,11.40
2018-04-12T03:32:46.908Z,11.40
2018-04-12T03:35:15.151Z,11.40
2018-04-12T03:37:44.040Z,11.40
2018-04-12T03:40:12.952Z,11.40
2018-04-12T03:42:41.084Z,11.40
2018-04-12T03:45:09.236Z,11.30
2018-04-12T03:47:37.352Z,11.30
2018-04-12T03:50:05.516Z,11.30
2018-04-12T03:52:33.622Z,11.20
2018-04-12T03:55:01.829Z,11.20
2018-04-12T03:57:29.956Z,11.20
2018-04-12T03:59:58.124Z,11.20
2018-04-12T04:02:26.348Z,11.10
2018-04-12T04:04:54.464Z,11.10
2018-04-12T04:07:22.621Z,10.90
2018-04-12T04:09:50.740Z,10.90
2018-04-12T04:12:18.896Z,10.80
2018-04-12T04:28:15.868Z,9.80
2018-04-12T04:30:43.987Z,9.50
2018-04-12T04:33:12.126Z,9.50
2018-04-12T04:35:41.006Z,9.90
2018-04-12T04:38:09.913Z,9.90
2018-04-12T04:40:38.164Z,9.90
2018-04-12T04:43:06.304Z,9.90
2018-04-12T04:45:34.437Z,9.90
2018-04-12T04:48:02.552Z,9.90
2018-04-12T04:50:30.694Z,9.90
2018-04-12T04:52:58.832Z,10.00
2018-04-12T04:55:26.997Z,10.10
2018-04-12T04:57:55.883Z,10.10
2018-04-12T05:00:24.802Z,10.10
2018-04-12T05:02:52.928Z,10.10
2018-04-12T05:05:21.096Z,10.20
2018-04-12T05:07:50.737Z,10.20
2018-04-12T05:10:18.876Z,10.20
2018-04-12T05:12:47.016Z,10.30
2018-04-12T05:15:15.167Z,10.40
2018-04-12T05:17:43.292Z,10.40
2018-04-12T05:20:11.481Z,10.40
2018-04-12T05:22:40.396Z,10.40
2018-04-12T05:25:08.552Z,10.40
2018-04-12T05:27:37.449Z,10.50
2018-04-12T05:30:05.580Z,10.50
2018-04-12T05:32:33.733Z,10.30
2018-04-12T05:35:01.849Z,10.30
2018-04-12T05:37:30.012Z,10.40
2018-04-12T05:39:58.185Z,10.60
2018-04-12T05:42:26.284Z,10.70
2018-04-12T05:44:54.432Z,10.90
2018-04-12T05:47:22.547Z,11.10
2018-04-12T05:49:50.683Z,11.10
2018-04-12T05:52:19.593Z,11.30
2018-04-12T05:54:47.713Z,11.30
2018-04-12T05:57:15.851Z,11.40
2018-04-12T05:59:43.996Z,11.50
2018-04-12T06:02:12.879Z,11.70
2018-04-12T06:04:41.107Z,11.60
2018-04-12T06:07:09.227Z,11.70
2018-04-12T06:09:37.962Z,11.80
2018-04-12T06:12:06.100Z,11.80
2018-04-12T06:14:34.241Z,11.90
2018-04-12T06:17:02.359Z,12.00
2018-04-12T06:19:30.510Z,12.10
2018-04-12T06:21:58.626Z,12.10
2018-04-12T06:24:26.856Z,12.20
2018-04-12T06:26:54.972Z,12.30
2018-04-12T06:29:23.208Z,12.50
2018-04-12T06:31:51.333Z,12.80
2018-04-12T06:34:19.453Z,12.90
2018-04-12T06:36:47.593Z,13.10
2018-04-12T06:39:15.718Z,13.10
2018-04-12T06:41:43.860Z,13.30
2018-04-12T06:44:12.002Z,13.40
2018-04-12T06:46:55.051Z,13.50
2018-04-12T06:49:38.965Z,14.00
2018-04-12T06:52:22.825Z,14.50
2018-04-12T06:54:50.947Z,15.20
2018-04-12T06:57:19.089Z,15.90
2018-04-12T06:59:47.354Z,16.50
2018-04-12T07:02:15.487Z,17.10
2018-04-12T07:04:44.392Z,18.10
2018-04-12T07:07:12.528Z,18.10
2018-04-12T07:09:40.660Z,18.50
2018-04-12T07:12:08.828Z,18.40
2018-04-12T07:14:36.964Z,18.50
2018-04-12T07:17:05.853Z,17.80
2018-04-12T07:19:34.005Z,17.70
2018-04-12T07:22:02.944Z,17.80
2018-04-12T07:24:31.080Z,17.80
2018-04-12T07:26:59.200Z,17.70
2018-04-12T07:29:27.333Z,17.70
2018-04-12T07:31:55.448Z,17.70
2018-04-12T07:34:23.587Z,18.30
2018-04-12T07:36:51.712Z,18.20
2018-04-12T07:39:20.035Z,17.80
2018-04-12T07:41:48.167Z,18.20
2018-04-12T07:44:16.305Z,17.70
2018-04-12T07:46:44.425Z,17.90
2018-04-12T07:49:13.318Z,18.30
2018-04-12T07:51:42.281Z,18.40
2018-04-12T07:54:10.428Z,18.40
2018-04-12T07:56:38.641Z,18.50
2018-04-12T07:59:06.705Z,18.90
2018-04-12T08:01:35.607Z,19.30
2018-04-12T08:04:04.495Z,19.30
2018-04-12T08:06:33.395Z,19.30
2018-04-12T08:09:01.528Z,19.30
2018-04-12T08:11:31.262Z,19.20
2018-04-12T08:13:59.380Z,19.20
2018-04-12T08:16:27.696Z,19.60
2018-04-12T08:18:55.800Z,20.00
2018-04-12T08:21:23.925Z,20.90
2018-04-12T08:23:52.077Z,21.80
2018-04-12T08:26:20.201Z,21.20
2018-04-12T08:28:49.142Z,20.10
2018-04-12T08:31:17.280Z,20.00
2018-04-12T08:33:45.435Z,20.70
2018-04-12T08:36:14.316Z,21.40
2018-04-12T08:38:43.220Z,21.40
2018-04-12T08:41:11.358Z,21.40
2018-04-12T08:43:39.496Z,21.40
2018-04-12T08:46:07.638Z,21.30
2018-04-12T08:48:36.235Z,21.60
2018-04-12T08:51:04.368Z,22.20
2018-04-12T08:53:33.280Z,21.70
2018-04-12T08:56:01.409Z,21.70
2018-04-12T08:58:30.447Z,21.40
2018-04-12T09:00:58.573Z,21.30
2018-04-12T09:03:26.705Z,20.80
2018-04-12T09:05:54.877Z,20.90
2018-04-12T09:08:23.057Z,21.30
2018-04-12T09:10:51.198Z,22.00
2018-04-12T09:13:19.321Z,22.00
2018-04-12T09:15:48.314Z,23.20
2018-04-12T09:18:16.435Z,23.20
2018-04-12T09:20:44.590Z,23.70
2018-04-12T09:23:12.715Z,23.80
2018-04-12T09:25:40.849Z,23.90
2018-04-12T09:28:08.968Z,23.90
2018-04-12T09:30:37.103Z,23.60
2018-04-12T09:33:05.240Z,23.00
2018-04-12T09:35:34.119Z,22.80
2018-04-12T09:38:02.425Z,22.80
2018-04-12T09:40:30.640Z,23.50
2018-04-12T09:42:58.776Z,23.90
2018-04-12T09:45:26.904Z,23.80
2018-04-12T09:47:55.033Z,23.60
2018-04-12T09:50:23.158Z,25.40
2018-04-12T09:52:52.064Z,23.80
2018-04-12T09:55:20.200Z,23.80
2018-04-12T09:57:48.344Z,23.50
2018-04-12T10:00:16.471Z,22.30
2018-04-12T10:02:50.276Z,23.20
2018-04-12T10:05:24.071Z,23.40
2018-04-12T10:07:52.982Z,26.00
2018-04-12T10:10:21.104Z,26.00
2018-04-12T10:12:49.218Z,24.70
2018-04-12T10:15:17.361Z,25.30
2018-04-12T10:17:46.282Z,25.20
2018-04-12T10:20:14.425Z,25.10
2018-04-12T10:22:42.541Z,25.00
2018-04-12T10:25:10.683Z,25.40
2018-04-12T10:27:38.812Z,24.10
2018-04-12T10:30:06.957Z,22.30
2018-04-12T10:32:35.091Z,21.90
2018-04-12T10:35:03.984Z,22.80
2018-04-12T10:37:32.100Z,22.80
2018-04-12T10:40:00.251Z,23.20
2018-04-12T10:42:28.367Z,22.80
2018-04-12T10:44:56.493Z,22.80
2018-04-12T10:47:24.632Z,22.60
2018-04-12T10:49:52.758Z,22.20
2018-04-12T10:52:20.918Z,22.00
2018-04-12T10:54:49.050Z,21.50
2018-04-12T10:57:17.180Z,21.40
2018-04-12T10:59:45.333Z,21.70
2018-04-12T11:02:13.480Z,21.60
2018-04-12T11:04:41.600Z,21.50
2018-04-12T11:07:09.731Z,22.50
2018-04-12T11:09:37.846Z,23.10
2018-04-12T11:12:05.991Z,23.60
2018-04-12T11:14:34.117Z,24.40
2018-04-12T11:17:03.020Z,25.10
2018-04-12T11:19:31.148Z,25.10
2018-04-12T11:22:00.077Z,23.20
2018-04-12T11:24:28.205Z,23.10
2018-04-12T11:26:56.322Z,23.80
2018-04-12T11:29:24.483Z,23.50
2018-04-12T11:31:53.356Z,22.60
2018-04-12T11:34:22.272Z,22.20
2018-04-12T11:36:51.143Z,22.20
2018-04-12T11:39:20.041Z,23.30
2018-04-12T11:41:48.172Z,23.30
2018-04-12T11:44:16.324Z,24.40
2018-04-12T11:46:44.465Z,23.50
2018-04-12T11:49:12.634Z,23.20
2018-04-12T11:51:40.751Z,23.10
2018-04-12T11:54:08.886Z,22.20
2018-04-12T11:56:37.016Z,22.50
2018-04-12T11:59:05.137Z,22.50
2018-04-12T12:01:33.272Z,22.50
2018-04-12T12:04:01.409Z,22.40
2018-04-12T12:06:30.369Z,22.50
2018-04-12T12:08:58.545Z,22.50
2018-04-12T12:11:26.680Z,23.40
2018-04-12T12:13:54.815Z,24.30
2018-04-12T12:16:23.307Z,24.20
2018-04-12T12:18:51.481Z,25.30
2018-04-12T12:21:19.607Z,26.40
2018-04-12T12:23:47.805Z,25.20
2018-04-12T12:26:15.888Z,24.40
2018-04-12T12:28:44.046Z,25.60
2018-04-12T12:31:12.165Z,25.30
2018-04-12T12:33:40.313Z,24.10
2018-04-12T12:36:09.184Z,22.50
2018-04-12T12:38:37.332Z,22.50
2018-04-12T12:41:05.455Z,22.40
2018-04-12T12:43:34.357Z,22.40
2018-04-12T12:46:02.489Z,22.40
2018-04-12T12:48:30.619Z,22.50
2018-04-12T12:50:58.735Z,22.60
2018-04-12T12:53:26.878Z,22.40
2018-04-12T12:55:55.081Z,22.80
2018-04-12T12:58:23.152Z,22.80
2018-04-12T13:00:52.040Z,23.30
2018-04-12T13:03:20.961Z,23.70
2018-04-12T13:05:49.132Z,23.70
2018-04-12T13:08:17.280Z,23.00
2018-04-12T13:10:46.181Z,23.90
2018-04-12T13:13:14.345Z,23.90
2018-04-12T13:15:42.472Z,23.40
2018-04-12T13:18:10.620Z,23.00
2018-04-12T13:20:38.924Z,23.30
2018-04-12T13:23:07.264Z,23.00
2018-04-12T13:25:35.400Z,23.60
2018-04-12T13:28:04.308Z,23.50
2018-04-12T13:30:32.450Z,23.50
2018-04-12T13:33:00.696Z,23.40
2018-04-12T13:35:29.656Z,22.80
2018-04-12T13:37:57.784Z,22.80
2018-04-12T13:40:25.928Z,22.90
2018-04-12T13:42:54.048Z,22.90
2018-04-12T13:45:22.975Z,23.50
2018-04-12T13:47:51.105Z,23.50
2018-04-12T13:50:20.012Z,24.00
2018-04-12T13:52:48.157Z,24.00
2018-04-12T13:55:16.334Z,23.30
2018-04-12T13:57:44.465Z,23.10
2018-04-12T14:00:12.575Z,23.10
2018-04-12T14:02:41.593Z,23.60
2018-04-12T14:05:09.728Z,23.50
2018-04-12T14:07:37.868Z,24.10
2018-04-12T14:10:05.994Z,24.30
2018-04-12T14:12:34.149Z,24.10
2018-04-12T14:15:02.281Z,24.30
2018-04-12T14:17:30.424Z,23.70
2018-04-12T14:19:58.565Z,24.00
2018-04-12T14:22:27.476Z,23.60
2018-04-12T14:24:55.611Z,23.60
2018-04-12T14:27:23.741Z,23.90
2018-04-12T14:29:51.912Z,23.70
2018-04-12T14:32:20.051Z,22.90
2018-04-12T14:34:49.292Z,23.10
2018-04-12T14:37:17.464Z,23.20
2018-04-12T14:39:45.584Z,23.20
2018-04-12T14:42:14.505Z,23.40
2018-04-12T14:44:42.626Z,23.40
2018-04-12T14:47:10.849Z,23.20
2018-04-12T14:49:38.964Z,23.10
2018-04-12T14:52:07.088Z,23.10
2018-04-12T14:54:35.220Z,22.90
2018-04-12T14:57:03.339Z,22.80
2018-04-12T14:59:31.472Z,22.80
2018-04-12T15:02:00.361Z,22.60
2018-04-12T15:04:28.515Z,22.60
2018-04-12T15:06:56.637Z,22.50
2018-04-12T15:09:24.775Z,22.50
2018-04-12T15:11:52.917Z,22.10
2018-04-12T15:14:21.108Z,22.10
2018-04-12T15:16:49.232Z,22.10
2018-04-12T15:19:17.375Z,22.10
2018-04-12T15:21:45.553Z,22.10
2018-04-12T15:24:13.713Z,22.10
2018-04-12T15:26:42.967Z,21.90
2018-04-12T15:29:11.092Z,21.80
2018-04-12T15:31:39.223Z,21.80
2018-04-12T15:34:07.368Z,21.90
2018-04-12T15:36:35.496Z,21.80
2018-04-12T15:39:03.669Z,21.90
2018-04-12T15:41:32.543Z,21.90
2018-04-12T15:44:01.484Z,21.90
2018-04-12T15:46:29.609Z,21.80
2018-04-12T15:48:58.489Z,21.80
2018-04-12T15:51:27.387Z,21.70
2018-04-12T15:53:56.278Z,21.50
2018-04-12T15:56:25.174Z,21.40
2018-04-12T15:58:53.295Z,21.40
2018-04-12T16:01:21.468Z,21.20
2018-04-12T16:03:49.567Z,21.10
2018-04-12T16:06:17.713Z,20.90
2018-04-12T16:08:45.845Z,20.70
2018-04-12T16:11:13.975Z,20.70
2018-04-12T16:13:42.088Z,20.60
2018-04-12T16:16:10.222Z,20.50
2018-04-12T16:18:38.337Z,20.40
2018-04-12T16:21:06.522Z,20.20
2018-04-12T16:23:34.635Z,20.30
2018-04-12T16:26:02.792Z,20.00
2018-04-12T16:28:30.932Z,19.80
2018-04-12T16:30:59.081Z,19.20
2018-04-12T16:33:27.203Z,18.80
2018-04-12T16:35:55.362Z,18.50
2018-04-12T16:38:23.492Z,18.20
2018-04-12T16:40:52.390Z,17.50
2018-04-12T16:43:20.514Z,17.50
2018-04-12T16:45:48.649Z,17.40
2018-04-12T16:48:16.766Z,17.30
2018-04-12T16:50:44.888Z,17.20
2018-04-12T16:53:13.031Z,17.20
2018-04-12T16:55:41.933Z,17.20
2018-04-12T16:58:10.075Z,17.20
2018-04-12T17:00:38.979Z,16.90
2018-04-12T17:03:07.876Z,16.90
2018-04-12T17:05:36.006Z,16.80
2018-04-12T17:08:04.155Z,16.70
2018-04-12T17:10:32.292Z,16.70
2018-04-12T17:13:00.436Z,16.80
2018-04-12T17:15:29.345Z,17.30
2018-04-12T17:17:58.243Z,17.40
2018-04-12T17:20:26.364Z,17.40
2018-04-12T17:22:54.491Z,17.30
2018-04-12T17:25:22.628Z,17.10
2018-04-12T17:27:51.542Z,17.30
2018-04-12T17:30:19.677Z,17.30
2018-04-12T17:32:47.823Z,17.30
2018-04-12T17:35:15.937Z,17.10
2018-04-12T17:37:44.849Z,17.10
2018-04-12T17:40:12.972Z,17.10
2018-04-12T17:42:41.121Z,17.20
2018-04-12T17:45:09.247Z,17.00
2018-04-12T17:47:38.141Z,16.70
2018-04-12T17:50:07.059Z,16.80
2018-04-12T17:52:35.180Z,16.80
2018-04-12T17:55:03.345Z,16.80
2018-04-12T17:57:31.462Z,17.00
2018-04-12T17:59:59.594Z,17.10
2018-04-12T18:02:27.725Z,17.20
2018-04-12T18:04:55.856Z,17.10
2018-04-12T18:07:23.976Z,17.10
2018-04-12T18:09:52.111Z,16.70
2018-04-12T18:12:20.232Z,16.60
2018-04-12T18:14:48.367Z,16.50
2018-04-12T18:17:16.486Z,16.60
2018-04-12T18:19:44.625Z,16.60
2018-04-12T18:22:12.749Z,16.50
2018-04-12T18:24:41.651Z,16.00
2018-04-12T18:27:09.813Z,16.00
2018-04-12T18:29:38.739Z,15.80
2018-04-12T18:32:06.873Z,15.70
2018-04-12T18:34:35.768Z,16.00
2018-04-12T18:37:03.972Z,16.00
2018-04-12T18:39:32.085Z,15.80
2018-04-12T18:42:00.227Z,15.70
2018-04-12T18:44:28.360Z,15.80
2018-04-12T18:46:56.514Z,15.80
2018-04-12T18:49:25.413Z,16.10
2018-04-12T18:51:53.532Z,16.10
2018-04-12T18:54:22.427Z,16.30
2018-04-12T18:56:50.560Z,16.20
2018-04-12T18:59:18.712Z,16.20
2018-04-12T19:01:46.841Z,16.30
2018-04-12T19:04:14.959Z,16.10
2018-04-12T19:06:43.851Z,16.30
2018-04-12T19:09:12.753Z,16.20
2018-04-12T19:11:40.871Z,16.20
2018-04-12T19:14:09.015Z,16.10
2018-04-12T19:16:37.126Z,16.00
2018-04-12T19:19:05.264Z,15.90
2018-04-12T19:21:33.444Z,15.90
2018-04-12T19:24:01.588Z,15.90
2018-04-12T19:26:29.705Z,15.90
2018-04-12T19:28:57.827Z,15.90
2018-04-12T19:31:25.962Z,15.80
2018-04-12T19:33:54.164Z,15.70
2018-04-12T19:36:22.308Z,15.60
2018-04-12T19:38:50.449Z,15.70
2018-04-12T19:41:18.651Z,15.60
2018-04-12T19:43:46.779Z,15.50
2018-04-12T19:46:14.896Z,15.50
2018-04-12T19:48:43.800Z,15.40
2018-04-12T19:51:12.682Z,15.40
2018-04-12T19:53:41.581Z,15.30
2018-04-12T19:56:10.468Z,15.10
2018-04-12T19:58:39.352Z,14.80
2018-04-12T20:01:08.323Z,14.90
2018-04-12T20:03:36.445Z,14.90
2018-04-12T20:06:04.594Z,15.10
2018-04-12T20:08:32.732Z,14.90
2018-04-12T20:11:00.923Z,14.80
2018-04-12T20:13:29.027Z,14.90
2018-04-12T20:15:57.181Z,14.90
2018-04-12T20:18:25.312Z,14.90
2018-04-12T20:20:53.465Z,14.80
2018-04-12T20:23:21.588Z,14.80
2018-04-12T20:25:50.499Z,14.70
2018-04-12T20:28:18.633Z,14.70
2018-04-12T20:30:46.821Z,14.70
2018-04-12T20:33:14.953Z,14.70
2018-04-12T20:35:43.121Z,14.60
2018-04-12T20:38:11.251Z,14.70
2018-04-12T20:40:39.402Z,14.60
2018-04-12T20:43:07.575Z,14.60
2018-04-12T20:45:35.724Z,14.50
2018-04-12T20:48:03.869Z,14.50
2018-04-12T20:50:31.988Z,14.50
2018-04-12T20:53:00.144Z,14.50
2018-04-12T20:55:28.265Z,14.40
2018-04-12T20:57:56.422Z,14.50
2018-04-12T21:00:24.692Z,14.50
2018-04-12T21:02:53.994Z,14.30
2018-04-12T21:05:22.123Z,14.30
2018-04-12T21:07:50.248Z,14.20
2018-04-12T21:10:18.385Z,14.00
2018-04-12T21:12:47.336Z,13.30
2018-04-12T21:15:15.490Z,13.30
2018-04-12T21:17:43.615Z,13.20
2018-04-12T21:20:11.744Z,13.40
2018-04-12T21:22:39.916Z,13.20
2018-04-12T21:25:08.044Z,13.20
2018-04-12T21:27:36.940Z,13.40
2018-04-12T21:30:06.319Z,13.30
2018-04-12T21:32:34.688Z,13.30
2018-04-12T21:35:02.841Z,13.10
2018-04-12T21:37:30.964Z,12.80
2018-04-12T21:39:59.108Z,12.90
2018-04-12T21:42:27.223Z,13.00
2018-04-12T21:44:55.379Z,13.10
2018-04-12T21:47:24.271Z,13.10
2018-04-12T21:49:52.560Z,13.10
2018-04-12T21:52:20.696Z,12.90
2018-04-12T21:54:48.836Z,12.80
2018-04-12T21:57:17.578Z,12.80
2018-04-12T21:59:46.562Z,12.40
2018-04-12T22:02:14.816Z,12.40
2018-04-12T22:04:43.020Z,12.40
2018-04-12T22:07:11.151Z,12.60
2018-04-12T22:09:39.281Z,12.80
2018-04-12T22:12:07.436Z,12.80
2018-04-12T22:14:35.588Z,12.90
2018-04-12T22:17:04.491Z,12.50
2018-04-12T22:19:32.625Z,12.50
2018-04-12T22:22:00.772Z,12.50
2018-04-12T22:24:29.081Z,12.50
2018-04-12T22:26:57.272Z,12.40
2018-04-12T22:29:26.175Z,12.30
2018-04-12T22:31:54.358Z,12.30
2018-04-12T22:34:22.480Z,12.40
2018-04-12T22:36:50.625Z,12.30
2018-04-12T22:39:18.797Z,12.40
2018-04-12T22:41:47.684Z,12.30
2018-04-12T22:44:16.607Z,11.80
2018-04-12T22:46:45.520Z,12.10
2018-04-12T22:49:14.409Z,12.00
2018-04-12T22:51:42.551Z,12.00
2018-04-12T22:54:10.718Z,12.20
2018-04-12T22:56:38.856Z,12.20
2018-04-12T22:59:06.969Z,12.20
2018-04-12T23:01:35.116Z,12.30
2018-04-12T23:04:04.440Z,12.20
2018-04-12T23:06:32.595Z,12.20
2018-04-12T23:09:00.692Z,12.30
2018-04-12T23:11:29.589Z,12.40
2018-04-12T23:13:57.707Z,12.40
2018-04-12T23:16:25.850Z,12.30
2018-04-12T23:18:53.981Z,12.20
2018-04-12T23:21:22.164Z,12.20
2018-04-12T23:23:50.272Z,11.80
2018-04-12T23:26:18.763Z,11.70
2018-04-12T23:28:46.873Z,11.80
2018-04-12T23:31:15.008Z,11.90
2018-04-12T23:33:43.149Z,12.00
2018-04-12T23:36:11.304Z,12.00
2018-04-12T23:38:40.196Z,12.00
2018-04-12T23:41:09.092Z,12.00
2018-04-12T23:43:38.004Z,12.10
2018-04-12T23:46:06.120Z,12.10
2018-04-12T23:48:35.764Z,12.20
2018-04-12T23:51:03.886Z,12.20
2018-04-12T23:53:32.101Z,12.20
2018-04-12T23:56:00.352Z,12.10
2018-04-12T23:58:28.548Z,12.00
